createdAt,value
2023-04-18T00:00:12.434Z,2.13
2023-04-18T00:02:40.182Z,2.30
2023-04-18T00:05:08.208Z,3.17
2023-04-18T00:07:35.776Z,2.05
2023-04-18T00:10:04.145Z,2.08
2023-04-18T00:12:32.175Z,2.42
2023-04-18T00:14:59.106Z,2.20
2023-04-18T00:17:27.802Z,2.50
2023-04-18T00:19:56.524Z,3.50
2023-04-18T00:22:23.690Z,2.53
2023-04-18T00:24:51.465Z,2.60
2023-04-18T00:27:19.485Z,2.42
2023-04-18T00:29:47.456Z,2.55
2023-04-18T00:32:14.770Z,2.17
2023-04-18T00:34:41.840Z,2.20
2023-04-18T00:37:09.110Z,2.03
2023-04-18T00:39:36.803Z,2.35
2023-04-18T00:42:04.211Z,2.40
2023-04-18T00:44:32.102Z,2.33
2023-04-18T00:47:01.264Z,2.25
2023-04-18T00:49:28.412Z,2.25
2023-04-18T00:51:56.910Z,2.25
2023-04-18T00:54:24.980Z,2.55
2023-04-18T00:56:51.820Z,2.17
2023-04-18T00:59:18.978Z,2.20
2023-04-18T01:01:46.149Z,2.67
2023-04-18T01:04:13.289Z,2.17
2023-04-18T01:06:41.076Z,2.10
2023-04-18T01:09:08.108Z,2.38
2023-04-18T01:11:36.332Z,2.53
2023-04-18T01:14:05.836Z,2.72
2023-04-18T01:16:34.102Z,2.47
2023-04-18T01:19:02.433Z,2.60
2023-04-18T01:21:31.442Z,2.60
2023-04-18T01:24:08.050Z,2.58
2023-04-18T01:26:35.149Z,2.72
2023-04-18T01:29:04.139Z,2.50
2023-04-18T01:31:34.370Z,3.45
2023-04-18T01:34:01.371Z,2.58
2023-04-18T01:36:28.420Z,2.33
2023-04-18T01:38:55.853Z,2.40
2023-04-18T01:41:23.000Z,2.50
2023-04-18T01:43:49.930Z,2.40
2023-04-18T01:46:17.025Z,2.97
2023-04-18T01:48:44.066Z,2.40
2023-04-18T01:51:10.964Z,2.10
2023-04-18T01:53:37.743Z,2.03
2023-04-18T01:56:04.752Z,2.53
2023-04-18T01:58:31.733Z,3.25
2023-04-18T02:00:58.531Z,2.20
2023-04-18T02:03:26.292Z,2.33
2023-04-18T02:05:53.346Z,2.35
2023-04-18T02:08:20.210Z,2.20
2023-04-18T02:10:47.169Z,2.65
2023-04-18T02:13:15.415Z,2.10
2023-04-18T02:15:45.629Z,2.45
2023-04-18T02:18:12.542Z,2.47
2023-04-18T02:20:40.247Z,2.70
2023-04-18T02:23:07.390Z,2.47
2023-04-18T02:25:34.587Z,2.40
2023-04-18T02:28:01.569Z,2.30
2023-04-18T02:30:28.563Z,2.42
2023-04-18T02:32:59.480Z,2.25
2023-04-18T02:35:27.657Z,2.60
2023-04-18T02:37:54.359Z,2.42
2023-04-18T02:40:21.336Z,2.85
2023-04-18T02:42:48.423Z,2.13
2023-04-18T02:45:15.636Z,2.40
2023-04-18T02:47:51.787Z,2.80
2023-04-18T02:50:22.204Z,2.90
2023-04-18T02:52:48.916Z,2.67
2023-04-18T02:55:15.833Z,2.63
2023-04-18T02:57:42.752Z,2.55
2023-04-18T03:00:10.251Z,2.72
2023-04-18T03:02:37.342Z,2.63
2023-04-18T03:05:04.835Z,2.58
2023-04-18T03:07:32.157Z,3.58
2023-04-18T03:10:04.204Z,2.42
2023-04-18T03:12:31.124Z,3.17
2023-04-18T03:14:58.120Z,2.78
2023-04-18T03:17:25.245Z,2.47
2023-04-18T03:19:52.154Z,2.78
2023-04-18T03:22:19.632Z,2.78
2023-04-18T03:24:46.259Z,2.78
2023-04-18T03:27:13.822Z,2.92
2023-04-18T03:29:40.766Z,2.88
2023-04-18T03:32:07.595Z,2.95
2023-04-18T03:34:34.543Z,2.90
2023-04-18T03:37:01.556Z,2.97
2023-04-18T03:39:28.442Z,2.85
2023-04-18T03:41:55.346Z,3.28
2023-04-18T03:44:34.722Z,3.38
2023-04-18T03:47:01.912Z,3.33
2023-04-18T03:49:29.175Z,3.17
2023-04-18T03:51:56.099Z,2.92
2023-04-18T03:54:23.116Z,3.38
2023-04-18T03:56:50.148Z,2.55
2023-04-18T03:59:17.158Z,3.22
2023-04-18T04:01:44.216Z,3.00
2023-04-18T04:04:12.481Z,3.08
2023-04-18T04:06:39.482Z,3.33
2023-04-18T04:09:06.578Z,3.40
2023-04-18T04:11:33.497Z,2.75
2023-04-18T04:14:00.762Z,3.65
2023-04-18T04:16:28.625Z,4.30
2023-04-18T04:18:55.527Z,3.20
2023-04-18T04:21:22.186Z,3.13
2023-04-18T04:23:49.150Z,3.00
2023-04-18T04:26:16.783Z,3.85
2023-04-18T04:28:46.478Z,3.13
2023-04-18T04:31:13.247Z,3.55
2023-04-18T04:33:41.165Z,4.53
2023-04-18T04:36:09.202Z,5.15
2023-04-18T04:38:40.730Z,4.00
2023-04-18T04:41:08.033Z,4.25
2023-04-18T04:43:35.187Z,4.57
2023-04-18T04:46:08.137Z,3.30
2023-04-18T04:48:35.178Z,3.45
2023-04-18T04:51:02.215Z,3.80
2023-04-18T04:53:32.888Z,3.03
2023-04-18T04:55:59.744Z,3.30
2023-04-18T04:58:26.869Z,2.63
2023-04-18T05:00:53.978Z,3.70
2023-04-18T05:03:21.295Z,3.00
2023-04-18T05:05:48.687Z,3.60
2023-04-18T05:08:15.525Z,2.90
2023-04-18T05:10:43.523Z,2.90
2023-04-18T05:13:10.573Z,3.15
2023-04-18T05:15:37.832Z,2.70
2023-04-18T05:18:05.185Z,2.30
2023-04-18T05:20:32.159Z,2.70
2023-04-18T05:22:59.013Z,2.30
2023-04-18T05:25:26.128Z,2.40
2023-04-18T05:27:53.233Z,2.15
2023-04-18T05:30:20.151Z,2.53
2023-04-18T05:32:47.205Z,2.05
2023-04-18T05:35:14.779Z,3.03
2023-04-18T05:37:41.556Z,2.17
2023-04-18T05:40:09.481Z,2.05
2023-04-18T05:42:36.480Z,2.30
2023-04-18T05:45:03.553Z,2.55
2023-04-18T05:47:30.624Z,1.90
2023-04-18T05:49:57.426Z,1.70
2023-04-18T05:52:26.111Z,2.42
2023-04-18T05:54:53.450Z,1.70
2023-04-18T05:57:20.639Z,2.15
2023-04-18T05:59:49.567Z,1.70
2023-04-18T06:02:16.739Z,2.20
2023-04-18T06:04:44.159Z,1.90
2023-04-18T06:07:11.520Z,1.95
2023-04-18T06:09:38.458Z,1.65
2023-04-18T06:12:05.760Z,2.00
2023-04-18T06:14:32.843Z,2.10
2023-04-18T06:16:59.836Z,6.43
2023-04-18T06:19:26.568Z,1.65
2023-04-18T06:21:53.663Z,2.10
2023-04-18T06:24:20.758Z,1.90
2023-04-18T06:26:47.647Z,1.60
2023-04-18T06:29:14.748Z,1.60
2023-04-18T06:31:42.432Z,1.63
2023-04-18T06:34:09.124Z,2.30
2023-04-18T06:36:36.506Z,1.55
2023-04-18T06:39:03.965Z,2.97
2023-04-18T06:41:31.519Z,1.80
2023-04-18T06:46:28.512Z,1.95
2023-04-18T06:48:55.789Z,2.53
2023-04-18T06:51:22.682Z,1.70
2023-04-18T06:53:52.935Z,1.75
2023-04-18T06:56:20.905Z,1.77
2023-04-18T06:58:48.307Z,1.42
2023-04-18T07:01:15.372Z,1.65
2023-04-18T07:03:42.302Z,1.52
2023-04-18T07:06:10.911Z,1.35
2023-04-18T07:08:38.400Z,1.45
2023-04-18T07:11:06.862Z,1.50
2023-04-18T07:13:33.629Z,1.30
2023-04-18T07:16:01.684Z,1.52
2023-04-18T07:18:37.498Z,1.10
2023-04-18T07:21:07.856Z,1.13
2023-04-18T07:23:35.750Z,1.23
2023-04-18T07:26:03.299Z,1.30
2023-04-18T07:28:32.017Z,1.40
2023-04-18T07:30:59.803Z,1.85
2023-04-18T07:33:27.025Z,1.17
2023-04-18T07:35:53.937Z,1.40
2023-04-18T07:38:20.942Z,1.60
2023-04-18T07:40:57.849Z,1.13
2023-04-18T07:43:24.736Z,1.48
2023-04-18T07:45:52.689Z,1.40
2023-04-18T07:48:22.463Z,1.10
2023-04-18T07:50:49.923Z,1.70
2023-04-18T07:53:17.044Z,2.28
2023-04-18T07:55:43.964Z,1.42
2023-04-18T07:58:11.290Z,0.70
2023-04-18T08:00:42.821Z,1.00
2023-04-18T08:03:13.028Z,1.10
2023-04-18T08:05:41.586Z,0.98
2023-04-18T08:08:10.425Z,1.02
2023-04-18T08:10:38.171Z,1.00
2023-04-18T08:13:05.188Z,1.58
2023-04-18T08:15:33.041Z,1.20
2023-04-18T08:18:01.392Z,1.30
2023-04-18T08:20:28.349Z,1.00
2023-04-18T08:25:25.436Z,1.05
2023-04-18T08:27:52.356Z,1.00
2023-04-18T08:30:19.437Z,1.17
2023-04-18T08:32:46.526Z,0.90
2023-04-18T08:35:13.615Z,1.10
2023-04-18T08:37:45.781Z,1.13
2023-04-18T08:40:12.849Z,1.00
2023-04-18T08:42:43.992Z,0.90
2023-04-18T08:45:14.376Z,0.70
2023-04-18T08:47:42.195Z,1.00
2023-04-18T08:50:10.733Z,0.93
2023-04-18T08:52:40.158Z,0.82
2023-04-18T08:55:07.580Z,0.80
2023-04-18T08:57:36.965Z,0.68
2023-04-18T09:00:10.526Z,0.65
2023-04-18T09:02:46.996Z,1.10
2023-04-18T09:05:19.949Z,1.20
2023-04-18T09:07:48.397Z,1.10
2023-04-18T09:10:29.085Z,0.93
2023-04-18T09:12:57.704Z,0.73
2023-04-18T09:15:29.758Z,1.00
2023-04-18T09:17:59.547Z,1.80
2023-04-18T09:20:30.885Z,0.88
2023-04-18T09:22:58.103Z,0.88
2023-04-18T09:25:34.665Z,0.60
2023-04-18T09:28:21.221Z,0.65
2023-04-18T09:30:51.553Z,0.90
2023-04-18T09:33:28.285Z,0.70
2023-04-18T09:36:18.895Z,1.00
2023-04-18T09:38:46.322Z,0.95
2023-04-18T09:41:20.069Z,0.80
2023-04-18T09:43:49.275Z,0.85
2023-04-18T09:46:17.995Z,0.73
2023-04-18T09:48:44.912Z,0.90
2023-04-18T09:51:16.059Z,0.80
2023-04-18T09:53:51.174Z,0.80
2023-04-18T09:56:28.463Z,0.52
2023-04-18T09:59:09.919Z,1.25
2023-04-18T10:01:37.266Z,0.60
2023-04-18T10:04:08.300Z,1.00
2023-04-18T10:06:39.992Z,0.80
2023-04-18T10:09:09.731Z,0.90
2023-04-18T10:11:37.034Z,1.75
2023-04-18T10:14:13.254Z,1.75
2023-04-18T10:16:42.381Z,0.80
2023-04-18T10:19:26.771Z,0.60
2023-04-18T10:21:58.943Z,0.60
2023-04-18T10:24:54.461Z,0.65
2023-04-18T10:27:46.144Z,0.75
2023-04-18T10:30:14.002Z,0.63
2023-04-18T10:32:40.920Z,0.50
2023-04-18T10:35:08.198Z,0.80
2023-04-18T10:37:35.109Z,1.05
2023-04-18T10:40:08.171Z,0.95
2023-04-18T10:42:47.037Z,0.80
2023-04-18T10:45:18.646Z,0.70
2023-04-18T10:47:45.785Z,0.60
2023-04-18T10:50:12.845Z,0.80
2023-04-18T10:52:40.110Z,0.70
2023-04-18T10:55:18.354Z,0.70
2023-04-18T10:57:46.257Z,0.65
2023-04-18T11:00:17.039Z,0.60
2023-04-18T11:02:52.790Z,0.52
2023-04-18T11:05:22.175Z,0.77
2023-04-18T11:07:49.263Z,1.20
2023-04-18T11:10:25.670Z,1.40
2023-04-18T11:12:53.843Z,0.73
2023-04-18T11:15:22.823Z,0.68
2023-04-18T11:18:04.074Z,0.50
2023-04-18T11:20:48.253Z,0.82
2023-04-18T11:23:17.458Z,0.60
2023-04-18T11:25:45.048Z,1.13
2023-04-18T11:28:16.961Z,2.20
2023-04-18T11:30:44.664Z,1.10
2023-04-18T11:33:13.190Z,1.00
2023-04-18T11:35:44.764Z,0.70
2023-04-18T11:38:13.903Z,0.60
2023-04-18T11:40:48.542Z,0.93
2023-04-18T11:43:24.363Z,0.60
2023-04-18T11:45:59.634Z,0.73
2023-04-18T11:48:41.278Z,0.63
2023-04-18T11:51:10.006Z,0.65
2023-04-18T11:53:38.508Z,0.60
2023-04-18T11:56:06.430Z,0.60
2023-04-18T11:58:36.492Z,0.82
2023-04-18T12:01:17.464Z,1.38
2023-04-18T12:03:59.702Z,0.85
2023-04-18T12:06:28.528Z,0.73
2023-04-18T12:09:00.441Z,0.75
2023-04-18T12:11:27.521Z,0.65
2023-04-18T12:13:57.057Z,0.80
2023-04-18T12:16:28.359Z,0.95
2023-04-18T12:19:01.616Z,1.10
2023-04-18T12:21:29.808Z,0.40
2023-04-18T12:23:57.693Z,0.73
2023-04-18T12:26:24.900Z,1.85
2023-04-18T12:28:53.137Z,0.68
2023-04-18T12:31:21.900Z,0.73
2023-04-18T12:33:48.890Z,0.50
2023-04-18T12:36:16.880Z,0.70
2023-04-18T12:38:43.744Z,0.55
2023-04-18T12:41:11.280Z,0.47
2023-04-18T12:43:38.229Z,1.00
2023-04-18T12:46:05.332Z,1.90
2023-04-18T12:48:33.253Z,0.50
2023-04-18T12:51:00.292Z,0.57
2023-04-18T12:53:27.098Z,0.63
2023-04-18T12:55:54.049Z,0.70
2023-04-18T12:58:21.128Z,0.70
2023-04-18T13:00:49.458Z,0.60
2023-04-18T13:03:16.587Z,0.77
2023-04-18T13:05:43.910Z,0.30
2023-04-18T13:08:16.827Z,1.15
2023-04-18T13:10:44.993Z,0.60
2023-04-18T13:13:11.873Z,0.73
2023-04-18T13:15:38.888Z,1.02
2023-04-18T13:18:08.887Z,0.70
2023-04-18T13:20:36.657Z,0.93
2023-04-18T13:23:04.085Z,1.00
2023-04-18T13:25:31.001Z,0.70
2023-04-18T13:27:58.763Z,0.50
2023-04-18T13:30:26.011Z,0.88
2023-04-18T13:32:53.107Z,0.70
2023-04-18T13:35:20.093Z,0.52
2023-04-18T13:37:46.992Z,1.20
2023-04-18T13:40:14.031Z,0.82
2023-04-18T13:42:41.043Z,1.10
2023-04-18T13:45:08.538Z,0.60
2023-04-18T13:47:49.033Z,1.02
2023-04-18T13:50:16.346Z,0.45
2023-04-18T13:52:43.575Z,0.80
2023-04-18T13:55:11.366Z,0.88
2023-04-18T13:57:38.266Z,1.02
2023-04-18T14:00:06.884Z,0.75
2023-04-18T14:02:33.973Z,1.58
2023-04-18T14:05:01.430Z,0.75
2023-04-18T14:07:28.417Z,0.50
2023-04-18T14:09:55.582Z,1.02
2023-04-18T14:12:22.858Z,0.47
2023-04-18T14:14:49.610Z,0.50
2023-04-18T14:17:16.496Z,0.90
2023-04-18T14:19:43.479Z,0.47
2023-04-18T14:22:10.773Z,0.52
2023-04-18T14:24:37.737Z,0.75
2023-04-18T14:27:04.510Z,0.40
2023-04-18T14:29:31.414Z,0.43
2023-04-18T14:31:58.498Z,0.60
2023-04-18T14:34:25.365Z,0.63
2023-04-18T14:36:52.132Z,0.50
2023-04-18T14:39:19.072Z,0.52
2023-04-18T14:41:46.005Z,0.90
2023-04-18T14:44:13.747Z,1.08
2023-04-18T14:46:42.021Z,0.77
2023-04-18T14:49:09.036Z,0.60
2023-04-18T14:51:36.108Z,0.38
2023-04-18T14:54:03.139Z,0.40
2023-04-18T14:56:30.198Z,0.60
2023-04-18T14:58:57.199Z,0.70
2023-04-18T15:01:23.897Z,0.73
2023-04-18T15:03:51.712Z,0.45
2023-04-18T15:06:18.766Z,0.65
2023-04-18T15:08:45.672Z,0.60
2023-04-18T15:11:13.266Z,0.90
2023-04-18T15:13:40.502Z,0.52
2023-04-18T15:16:08.076Z,0.93
2023-04-18T15:18:34.985Z,0.40
2023-04-18T15:21:02.335Z,0.60
2023-04-18T15:23:29.122Z,0.47
2023-04-18T15:25:55.765Z,2.08
2023-04-18T15:28:23.174Z,0.85
2023-04-18T15:30:49.969Z,0.60
2023-04-18T15:33:19.234Z,0.40
2023-04-18T15:35:48.431Z,0.40
2023-04-18T15:38:17.774Z,0.77
2023-04-18T15:40:47.657Z,0.35
2023-04-18T15:43:15.821Z,0.60
2023-04-18T15:45:44.647Z,0.60
2023-04-18T15:48:12.046Z,0.60
2023-04-18T15:50:39.155Z,0.70
2023-04-18T15:53:06.015Z,0.70
2023-04-18T15:55:33.237Z,0.40
2023-04-18T15:58:00.290Z,0.50
2023-04-18T16:00:27.636Z,0.30
2023-04-18T16:02:54.586Z,0.50
2023-04-18T16:05:22.164Z,0.52
2023-04-18T16:07:49.121Z,0.60
2023-04-18T16:10:16.181Z,0.50
2023-04-18T16:12:43.081Z,0.60
2023-04-18T16:15:10.496Z,0.55
2023-04-18T16:17:38.218Z,0.50
2023-04-18T16:20:06.636Z,0.55
2023-04-18T16:22:33.561Z,0.38
2023-04-18T16:25:00.626Z,0.77
2023-04-18T16:27:27.572Z,0.32
2023-04-18T16:29:54.606Z,0.90
2023-04-18T16:32:21.664Z,0.60
2023-04-18T16:34:48.632Z,0.85
2023-04-18T16:37:18.032Z,0.55
2023-04-18T16:39:44.869Z,0.63
2023-04-18T16:42:14.053Z,0.80
2023-04-18T16:44:42.364Z,0.73
2023-04-18T16:47:11.513Z,0.43
2023-04-18T16:49:38.349Z,0.60
2023-04-18T16:52:05.435Z,0.43
2023-04-18T16:54:32.158Z,0.70
2023-04-18T16:56:59.177Z,0.98
2023-04-18T16:59:26.295Z,0.90
2023-04-18T17:01:53.220Z,0.57
2023-04-18T17:04:20.362Z,1.02
2023-04-18T17:06:47.191Z,0.70
2023-04-18T17:09:14.947Z,0.43
2023-04-18T17:11:42.053Z,0.80
2023-04-18T17:14:09.151Z,0.40
2023-04-18T17:16:39.131Z,0.85
2023-04-18T17:19:06.676Z,0.50
2023-04-18T17:21:34.906Z,0.70
2023-04-18T17:24:04.064Z,0.80
2023-04-18T17:26:31.698Z,0.60
2023-04-18T17:28:59.325Z,0.63
2023-04-18T17:31:26.105Z,0.55
2023-04-18T17:33:54.604Z,0.73
2023-04-18T17:36:21.280Z,0.60
2023-04-18T17:38:50.870Z,0.68
2023-04-18T17:41:19.474Z,0.50
2023-04-18T17:43:46.673Z,0.60
2023-04-18T17:46:14.772Z,0.43
2023-04-18T17:48:41.636Z,0.40
2023-04-18T17:51:08.377Z,0.50
2023-04-18T17:53:35.040Z,0.60
2023-04-18T17:56:03.748Z,0.75
2023-04-18T17:58:30.658Z,0.50
2023-04-18T18:00:57.576Z,0.80
2023-04-18T18:03:24.716Z,0.68
2023-04-18T18:05:52.092Z,0.60
2023-04-18T18:08:19.006Z,0.60
2023-04-18T18:10:47.231Z,0.60
2023-04-18T18:13:14.167Z,0.65
2023-04-18T18:15:41.100Z,0.77
2023-04-18T18:18:07.936Z,0.90
2023-04-18T18:20:34.614Z,0.93
2023-04-18T18:23:01.803Z,0.68
2023-04-18T18:25:28.794Z,0.85
2023-04-18T18:27:55.494Z,0.40
2023-04-18T18:30:22.307Z,0.50
2023-04-18T18:32:49.724Z,0.70
2023-04-18T18:35:16.513Z,0.60
2023-04-18T18:37:43.402Z,1.02
2023-04-18T18:40:10.818Z,0.93
2023-04-18T18:42:37.709Z,1.80
2023-04-18T18:45:05.316Z,1.42
2023-04-18T18:47:34.634Z,1.17
2023-04-18T18:50:02.751Z,1.15
2023-04-18T18:52:31.096Z,1.00
2023-04-18T18:54:58.165Z,0.57
2023-04-18T18:57:25.273Z,0.80
2023-04-18T18:59:54.530Z,0.82
2023-04-18T19:02:23.046Z,1.00
2023-04-18T19:04:50.068Z,0.70
2023-04-18T19:07:17.206Z,0.85
2023-04-18T19:09:44.618Z,0.90
2023-04-18T19:12:11.664Z,1.02
2023-04-18T19:14:39.750Z,0.90
2023-04-18T19:17:07.537Z,0.98
2023-04-18T19:19:34.605Z,0.70
2023-04-18T19:22:01.503Z,1.10
2023-04-18T19:24:28.820Z,1.20
2023-04-18T19:26:55.696Z,1.45
2023-04-18T19:29:22.756Z,1.40
2023-04-18T19:31:49.909Z,0.77
2023-04-18T19:34:19.044Z,0.95
2023-04-18T19:36:45.911Z,0.90
2023-04-18T19:39:12.948Z,0.70
2023-04-18T19:41:41.788Z,0.88
2023-04-18T19:44:08.969Z,1.10
2023-04-18T19:46:35.783Z,0.85
2023-04-18T19:49:02.718Z,0.60
2023-04-18T19:51:29.725Z,1.15
2023-04-18T19:53:56.526Z,0.80
2023-04-18T19:56:23.537Z,0.90
2023-04-18T19:58:51.273Z,0.90
2023-04-18T20:01:21.418Z,1.10
2023-04-18T20:03:48.632Z,1.17
2023-04-18T20:06:18.752Z,1.10
2023-04-18T20:08:46.266Z,1.15
2023-04-18T20:11:19.214Z,0.93
2023-04-18T20:13:46.185Z,0.90
2023-04-18T20:16:18.987Z,0.75
2023-04-18T20:18:47.443Z,1.05
2023-04-18T20:21:14.488Z,0.80
2023-04-18T20:23:42.751Z,0.60
2023-04-18T20:26:09.822Z,0.85
2023-04-18T20:28:37.961Z,1.05
2023-04-18T20:31:04.821Z,0.98
2023-04-18T20:33:31.862Z,0.93
2023-04-18T20:35:59.138Z,1.20
2023-04-18T20:38:31.971Z,0.95
2023-04-18T20:40:59.030Z,1.00
2023-04-18T20:43:26.999Z,0.90
2023-04-18T20:45:54.670Z,1.23
2023-04-18T20:48:21.747Z,0.93
2023-04-18T20:50:51.787Z,1.25
2023-04-18T20:53:21.185Z,1.20
2023-04-18T20:55:48.885Z,1.13
2023-04-18T20:58:15.925Z,0.93
2023-04-18T21:00:43.949Z,0.85
2023-04-18T21:03:16.647Z,0.70
2023-04-18T21:05:44.590Z,0.80
2023-04-18T21:08:11.584Z,0.88
2023-04-18T21:10:38.710Z,1.58
2023-04-18T21:13:05.688Z,0.95
2023-04-18T21:15:32.819Z,0.98
2023-04-18T21:17:59.924Z,1.40
2023-04-18T21:20:27.204Z,1.20
2023-04-18T21:22:54.527Z,0.60
2023-04-18T21:25:21.658Z,1.00
2023-04-18T21:27:50.886Z,0.82
2023-04-18T21:30:18.250Z,1.00
2023-04-18T21:32:47.359Z,0.73
2023-04-18T21:35:17.138Z,0.93
2023-04-18T21:37:46.262Z,0.90
2023-04-18T21:40:13.224Z,1.10
2023-04-18T21:42:40.338Z,1.00
2023-04-18T21:45:07.964Z,0.80
2023-04-18T21:47:34.916Z,0.90
2023-04-18T21:50:01.619Z,1.20
2023-04-18T21:52:30.193Z,1.08
2023-04-18T21:54:59.458Z,0.88
2023-04-18T21:57:26.465Z,1.17
2023-04-18T21:59:54.492Z,0.95
2023-04-18T22:02:21.677Z,0.90
2023-04-18T22:04:49.161Z,1.02
2023-04-18T22:07:16.156Z,0.90
2023-04-18T22:09:44.927Z,0.90
2023-04-18T22:12:14.236Z,0.77
2023-04-18T22:14:42.161Z,0.75
2023-04-18T22:17:19.585Z,1.10
2023-04-18T22:19:49.276Z,1.15
2023-04-18T22:22:16.231Z,0.73
2023-04-18T22:24:45.004Z,0.90
2023-04-18T22:27:13.554Z,0.50
2023-04-18T22:29:42.897Z,0.80
2023-04-18T22:32:09.720Z,1.00
2023-04-18T22:34:36.617Z,1.00
2023-04-18T22:37:03.553Z,1.00
2023-04-18T22:39:31.426Z,1.02
2023-04-18T22:41:58.375Z,0.85
2023-04-18T22:44:25.524Z,0.80
2023-04-18T22:46:54.891Z,1.02
2023-04-18T22:49:22.473Z,1.23
2023-04-18T22:51:49.874Z,1.25
2023-04-18T22:54:16.906Z,0.80
2023-04-18T22:56:43.894Z,1.02
2023-04-18T22:59:10.793Z,1.10
2023-04-18T23:01:37.833Z,0.90
2023-04-18T23:04:05.163Z,0.98
2023-04-18T23:06:32.729Z,0.75
2023-04-18T23:08:59.582Z,1.00
2023-04-18T23:11:26.649Z,0.93
2023-04-18T23:14:04.044Z,1.00
2023-04-18T23:16:30.799Z,0.85
2023-04-18T23:18:57.789Z,1.27
2023-04-18T23:21:24.589Z,1.25
2023-04-18T23:23:51.680Z,0.93
2023-04-18T23:26:18.673Z,0.90
2023-04-18T23:28:45.485Z,1.00
2023-04-18T23:31:12.649Z,0.80
2023-04-18T23:33:39.944Z,0.90
2023-04-18T23:36:07.517Z,1.05
2023-04-18T23:38:37.427Z,0.90
2023-04-18T23:41:04.995Z,1.23
2023-04-18T23:43:32.016Z,0.98
2023-04-18T23:45:59.046Z,1.08
2023-04-18T23:48:26.135Z,1.00
2023-04-18T23:50:54.710Z,1.08
2023-04-18T23:53:23.082Z,1.27
2023-04-18T23:55:51.082Z,1.38
2023-04-18T23:58:18.236Z,1.13
